createdAt,value
2019-03-03T00:00:39.583Z,5.35
2019-03-03T00:03:10.689Z,5.53
2019-03-03T00:05:41.741Z,6.03
2019-03-03T00:08:12.735Z,4.40
2019-03-03T00:10:43.718Z,4.83
2019-03-03T00:13:14.742Z,7.55
2019-03-03T00:15:45.719Z,5.65
2019-03-03T00:18:16.731Z,4.47
2019-03-03T00:20:46.859Z,8.73
2019-03-03T00:23:17.802Z,6.47
2019-03-03T00:25:49.113Z,7.17
2019-03-03T00:28:20.088Z,5.03
2019-03-03T00:30:52.560Z,4.53
2019-03-03T00:33:23.506Z,6.28
2019-03-03T00:35:54.520Z,5.22
2019-03-03T00:38:27.111Z,4.90
2019-03-03T00:41:05.675Z,7.23
2019-03-03T00:43:40.928Z,4.35
2019-03-03T00:46:16.538Z,4.65
2019-03-03T00:48:55.048Z,5.30
2019-03-03T00:51:31.614Z,7.25
2019-03-03T00:54:13.371Z,5.35
2019-03-03T00:57:02.372Z,4.17
2019-03-03T00:59:35.850Z,5.50
2019-03-03T01:02:11.191Z,6.83
2019-03-03T01:04:56.058Z,5.92
2019-03-03T01:07:31.418Z,5.67
2019-03-03T01:10:06.637Z,7.60
2019-03-03T01:12:48.083Z,10.30
2019-03-03T01:15:20.703Z,8.30
2019-03-03T01:17:55.718Z,6.20
2019-03-03T01:20:31.329Z,5.85
2019-03-03T01:23:03.922Z,6.42
2019-03-03T01:25:34.870Z,8.20
2019-03-03T01:28:05.799Z,10.68
2019-03-03T01:30:36.850Z,8.25
2019-03-03T01:33:07.778Z,5.17
2019-03-03T01:35:38.683Z,5.12
2019-03-03T01:38:09.628Z,6.75
2019-03-03T01:40:40.529Z,5.80
2019-03-03T01:43:11.500Z,8.00
2019-03-03T01:45:42.405Z,9.83
2019-03-03T01:48:13.347Z,6.20
2019-03-03T01:50:45.419Z,6.62
2019-03-03T01:53:16.320Z,7.80
2019-03-03T01:55:47.209Z,8.03
2019-03-03T01:58:18.126Z,7.45
2019-03-03T02:00:49.104Z,9.35
2019-03-03T02:03:20.117Z,8.03
2019-03-03T02:05:51.105Z,7.95
2019-03-03T02:08:22.116Z,6.85
2019-03-03T02:10:53.576Z,11.53
2019-03-03T02:13:24.859Z,12.60
2019-03-03T02:15:55.945Z,6.97
2019-03-03T02:18:28.061Z,7.87
2019-03-03T02:21:00.023Z,5.90
2019-03-03T02:23:30.972Z,7.72
2019-03-03T02:26:01.875Z,7.15
2019-03-03T02:28:33.046Z,7.20
2019-03-03T02:31:03.957Z,4.47
2019-03-03T02:33:34.915Z,7.65
2019-03-03T02:36:05.824Z,7.45
2019-03-03T02:38:36.908Z,7.33
2019-03-03T02:41:07.893Z,10.48
2019-03-03T02:43:40.902Z,8.98
2019-03-03T02:46:12.043Z,10.55
2019-03-03T02:48:43.124Z,10.10
2019-03-03T02:51:14.122Z,11.90
2019-03-03T02:53:45.163Z,8.88
2019-03-03T02:56:16.061Z,8.83
2019-03-03T02:58:47.028Z,12.65
2019-03-03T03:01:19.695Z,9.13
2019-03-03T03:03:50.702Z,9.70
2019-03-03T03:06:23.201Z,8.13
2019-03-03T03:09:11.042Z,6.97
2019-03-03T03:11:54.111Z,10.93
2019-03-03T03:14:29.790Z,13.35
2019-03-03T03:17:18.752Z,12.95
2019-03-03T03:19:57.010Z,15.75
2019-03-03T03:22:46.244Z,9.50
2019-03-03T03:25:21.536Z,9.25
2019-03-03T03:28:10.620Z,9.15
2019-03-03T03:30:55.123Z,11.10
2019-03-03T03:33:40.116Z,8.68
2019-03-03T03:36:15.622Z,12.45
2019-03-03T03:39:04.268Z,13.98
2019-03-03T03:41:38.273Z,13.60
2019-03-03T03:44:13.742Z,9.88
2019-03-03T03:46:53.203Z,11.55
2019-03-03T03:49:25.806Z,14.53
2019-03-03T03:52:01.328Z,12.25
2019-03-03T03:54:34.051Z,10.00
2019-03-03T03:57:09.719Z,18.98
2019-03-03T03:59:51.356Z,11.78
2019-03-03T04:02:23.989Z,9.18
2019-03-03T04:05:11.917Z,13.43
2019-03-03T04:07:59.547Z,9.83
2019-03-03T04:10:34.859Z,12.30
2019-03-03T04:13:16.275Z,11.35
2019-03-03T04:15:54.555Z,22.15
2019-03-03T04:18:43.477Z,13.62
2019-03-03T04:21:18.796Z,11.20
2019-03-03T04:23:51.453Z,12.50
2019-03-03T04:26:30.086Z,11.95
2019-03-03T04:29:02.810Z,15.88
2019-03-03T04:31:41.034Z,16.50
2019-03-03T04:34:17.527Z,19.15
2019-03-03T04:36:52.937Z,13.72
2019-03-03T04:39:28.185Z,13.30
2019-03-03T04:42:00.879Z,11.68
2019-03-03T04:44:46.035Z,15.45
2019-03-03T04:47:33.798Z,14.75
2019-03-03T04:50:09.206Z,14.80
2019-03-03T04:52:44.912Z,15.68
2019-03-03T04:55:23.707Z,15.40
2019-03-03T04:58:08.385Z,13.22
2019-03-03T05:00:58.943Z,19.95
2019-03-03T05:03:34.385Z,17.52
2019-03-03T05:06:09.799Z,18.48
2019-03-03T05:08:51.366Z,18.05
2019-03-03T05:11:53.128Z,15.58
2019-03-03T05:14:25.781Z,16.57
2019-03-03T05:17:00.898Z,16.07
2019-03-03T05:19:31.944Z,14.60
2019-03-03T05:22:03.000Z,19.27
2019-03-03T05:24:34.710Z,16.27
2019-03-03T05:27:05.952Z,25.57
2019-03-03T05:29:37.010Z,19.77
2019-03-03T05:32:08.038Z,16.57
2019-03-03T05:34:39.016Z,16.17
2019-03-03T05:37:10.458Z,19.35
2019-03-03T05:39:41.456Z,18.77
2019-03-03T05:42:12.513Z,37.17
2019-03-03T05:44:43.452Z,33.98
2019-03-03T05:47:14.451Z,19.55
2019-03-03T05:49:45.460Z,15.90
2019-03-03T05:52:16.637Z,18.25
2019-03-03T05:54:47.707Z,11.80
2019-03-03T05:57:18.735Z,11.48
2019-03-03T05:59:49.751Z,15.35
2019-03-03T06:02:20.752Z,14.25
2019-03-03T06:04:52.175Z,21.75
2019-03-03T06:07:23.346Z,19.42
2019-03-03T06:09:54.392Z,21.45
2019-03-03T06:12:25.547Z,16.05
2019-03-03T06:14:56.547Z,15.70
2019-03-03T06:17:27.575Z,26.00
2019-03-03T06:19:58.758Z,15.05
2019-03-03T06:22:30.108Z,16.45
2019-03-03T06:25:01.211Z,18.25
2019-03-03T06:27:33.882Z,19.37
2019-03-03T06:30:10.902Z,25.80
2019-03-03T06:32:42.167Z,24.35
2019-03-03T06:35:13.292Z,23.67
2019-03-03T06:37:44.397Z,21.33
2019-03-03T06:40:15.472Z,22.67
2019-03-03T06:42:46.771Z,30.65
2019-03-03T06:45:17.805Z,26.35
2019-03-03T06:47:48.965Z,25.57
2019-03-03T06:50:20.100Z,22.58
2019-03-03T06:52:51.293Z,27.70
2019-03-03T06:55:22.498Z,21.85
2019-03-03T06:57:53.753Z,22.15
2019-03-03T07:00:25.014Z,18.00
2019-03-03T07:02:56.233Z,20.25
2019-03-03T07:05:27.630Z,15.78
2019-03-03T07:07:58.917Z,14.87
2019-03-03T07:10:30.017Z,21.02
2019-03-03T07:13:01.163Z,15.63
2019-03-03T07:15:32.326Z,12.45
2019-03-03T07:18:03.448Z,16.10
2019-03-03T07:20:34.550Z,16.57
2019-03-03T07:23:05.745Z,9.40
2019-03-03T07:25:37.136Z,11.85
2019-03-03T07:28:08.252Z,11.90
2019-03-03T07:30:39.238Z,10.38
2019-03-03T07:33:12.152Z,17.00
2019-03-03T07:35:43.232Z,9.68
2019-03-03T07:38:14.248Z,8.65
2019-03-03T07:40:45.266Z,13.98
2019-03-03T07:43:16.562Z,12.73
2019-03-03T07:45:47.871Z,8.80
2019-03-03T07:48:20.646Z,11.13
2019-03-03T07:50:54.337Z,9.78
2019-03-03T07:55:55.664Z,11.48
2019-03-03T07:58:26.876Z,13.08
2019-03-03T08:00:58.036Z,6.65
2019-03-03T08:03:28.987Z,8.50
2019-03-03T08:05:59.947Z,7.05
2019-03-03T08:08:31.274Z,5.12
2019-03-03T08:11:02.417Z,11.20
2019-03-03T08:13:33.491Z,12.90
2019-03-03T08:16:04.725Z,5.33
2019-03-03T08:18:36.796Z,10.45
2019-03-03T08:21:07.911Z,5.17
2019-03-03T08:23:39.056Z,11.78
2019-03-03T08:26:10.300Z,8.18
2019-03-03T08:28:41.342Z,8.73
2019-03-03T08:31:13.563Z,16.87
2019-03-03T08:33:44.733Z,10.72
2019-03-03T08:36:16.180Z,10.60
2019-03-03T08:38:47.477Z,13.35
2019-03-03T08:41:18.649Z,12.05
2019-03-03T08:43:51.319Z,19.30
2019-03-03T08:46:40.315Z,24.87
2019-03-03T08:49:15.789Z,15.85
2019-03-03T08:51:57.194Z,20.20
2019-03-03T08:54:30.975Z,18.45
2019-03-03T08:57:16.045Z,21.50
2019-03-03T08:59:51.940Z,31.40
2019-03-03T09:02:24.656Z,26.90
2019-03-03T09:05:00.566Z,20.37
2019-03-03T09:07:49.536Z,13.55
2019-03-03T09:10:28.172Z,18.20
2019-03-03T09:13:06.948Z,14.80
2019-03-03T09:15:45.838Z,16.27
2019-03-03T09:18:21.106Z,13.80
2019-03-03T09:21:12.043Z,11.33
2019-03-03T09:23:50.555Z,13.28
2019-03-03T09:26:24.418Z,13.13
2019-03-03T09:29:00.090Z,8.55
2019-03-03T09:31:32.957Z,5.45
2019-03-03T09:34:22.067Z,9.53
2019-03-03T09:37:00.566Z,7.90
2019-03-03T09:39:33.281Z,7.62
2019-03-03T09:42:15.268Z,8.00
2019-03-03T09:44:50.765Z,13.72
2019-03-03T09:47:25.879Z,23.75
2019-03-03T09:50:14.427Z,6.55
2019-03-03T09:52:49.479Z,11.78
2019-03-03T09:55:27.905Z,4.95
2019-03-03T09:58:03.236Z,5.97
2019-03-03T10:00:40.245Z,4.78
2019-03-03T10:03:21.876Z,15.05
2019-03-03T10:05:54.412Z,7.25
2019-03-03T10:08:36.212Z,9.80
2019-03-03T10:11:11.960Z,16.10
2019-03-03T10:13:47.749Z,6.70
2019-03-03T10:16:20.906Z,6.50
2019-03-03T10:18:53.620Z,10.40
2019-03-03T10:21:26.121Z,17.60
2019-03-03T10:24:04.667Z,15.23
2019-03-03T10:26:53.900Z,8.30
2019-03-03T10:29:29.135Z,11.20
2019-03-03T10:32:10.629Z,18.10
2019-03-03T10:34:43.188Z,5.33
2019-03-03T10:37:16.267Z,4.25
2019-03-03T10:39:49.064Z,5.00
2019-03-03T10:42:24.475Z,3.75
2019-03-03T10:44:57.053Z,7.78
2019-03-03T10:47:45.846Z,5.30
2019-03-03T10:50:34.923Z,5.72
2019-03-03T10:53:09.980Z,8.60
2019-03-03T10:55:42.753Z,11.03
2019-03-03T10:58:18.573Z,11.33
2019-03-03T11:00:51.280Z,14.20
2019-03-03T11:03:39.824Z,8.17
2019-03-03T11:06:12.488Z,12.85
2019-03-03T11:08:45.061Z,13.23
2019-03-03T11:14:09.572Z,20.45
2019-03-03T11:16:45.035Z,18.00
2019-03-03T11:19:23.451Z,17.10
2019-03-03T11:22:11.561Z,17.52
2019-03-03T11:24:44.261Z,19.17
2019-03-03T11:27:16.914Z,16.53
2019-03-03T11:29:58.544Z,16.30
2019-03-03T11:32:34.036Z,14.33
2019-03-03T11:35:07.411Z,13.80
2019-03-03T11:37:49.754Z,11.03
2019-03-03T11:40:37.647Z,15.13
2019-03-03T11:43:13.012Z,14.53
2019-03-03T11:45:51.623Z,16.55
2019-03-03T11:48:30.024Z,15.28
2019-03-03T11:51:11.581Z,15.78
2019-03-03T11:54:00.449Z,11.93
2019-03-03T11:56:45.130Z,16.65
2019-03-03T11:59:23.282Z,33.15
2019-03-03T12:02:01.866Z,17.62
2019-03-03T12:04:40.447Z,10.55
2019-03-03T12:07:25.271Z,15.43
2019-03-03T12:10:14.285Z,16.45
2019-03-03T12:12:53.040Z,16.52
2019-03-03T12:15:31.180Z,23.32
2019-03-03T12:18:03.878Z,24.67
2019-03-03T12:20:36.602Z,27.47
2019-03-03T12:23:24.313Z,16.93
2019-03-03T12:25:59.576Z,19.95
2019-03-03T12:28:32.206Z,15.15
2019-03-03T12:31:07.452Z,14.68
2019-03-03T12:33:40.001Z,30.08
2019-03-03T12:36:24.493Z,24.25
2019-03-03T12:39:08.982Z,21.48
2019-03-03T12:41:55.000Z,16.80
2019-03-03T12:44:27.579Z,21.90
2019-03-03T12:47:01.388Z,14.68
2019-03-03T12:49:36.507Z,28.07
2019-03-03T12:52:17.841Z,16.62
2019-03-03T12:54:50.591Z,18.02
2019-03-03T12:57:26.163Z,13.30
2019-03-03T13:00:04.974Z,15.53
2019-03-03T13:02:38.327Z,17.85
2019-03-03T13:05:14.726Z,16.05
2019-03-03T13:07:50.103Z,17.20
2019-03-03T13:10:31.644Z,17.45
2019-03-03T13:13:19.427Z,11.88
2019-03-03T13:15:52.032Z,9.45
2019-03-03T13:18:36.460Z,15.23
2019-03-03T13:21:17.983Z,17.92
2019-03-03T13:23:53.106Z,12.78
2019-03-03T13:26:40.527Z,10.50
2019-03-03T13:29:25.489Z,12.43
2019-03-03T13:32:00.940Z,13.85
2019-03-03T13:34:45.432Z,13.60
2019-03-03T13:37:24.136Z,15.98
2019-03-03T13:40:06.043Z,16.23
2019-03-03T13:42:39.080Z,21.48
2019-03-03T13:45:12.105Z,11.80
2019-03-03T13:47:44.326Z,10.35
2019-03-03T13:50:16.408Z,18.85
2019-03-03T13:52:47.364Z,12.78
2019-03-03T13:55:18.244Z,26.75
2019-03-03T13:57:49.799Z,22.60
2019-03-03T14:00:22.551Z,24.60
2019-03-03T14:02:53.577Z,17.63
2019-03-03T14:05:24.518Z,16.45
2019-03-03T14:07:55.485Z,20.70
2019-03-03T14:10:26.644Z,15.63
2019-03-03T14:12:58.609Z,18.42
2019-03-03T14:15:29.488Z,11.80
2019-03-03T14:18:00.470Z,10.75
2019-03-03T14:20:31.507Z,21.07
2019-03-03T14:23:02.408Z,18.48
2019-03-03T14:25:33.542Z,40.17
2019-03-03T14:28:04.641Z,26.00
2019-03-03T14:30:35.615Z,16.97
2019-03-03T14:33:06.493Z,16.23
2019-03-03T14:35:37.392Z,17.45
2019-03-03T14:38:08.423Z,14.33
2019-03-03T14:40:39.436Z,22.35
2019-03-03T14:43:10.450Z,52.17
2019-03-03T14:45:41.543Z,18.23
2019-03-03T14:48:12.857Z,17.67
2019-03-03T14:50:44.088Z,14.70
2019-03-03T14:53:15.065Z,12.47
2019-03-03T14:55:46.580Z,17.50
2019-03-03T14:58:17.466Z,13.85
2019-03-03T15:00:48.416Z,10.40
2019-03-03T15:03:19.421Z,19.17
2019-03-03T15:05:50.438Z,11.75
2019-03-03T15:08:21.358Z,14.13
2019-03-03T15:10:52.269Z,14.50
2019-03-03T15:13:23.334Z,10.85
2019-03-03T15:15:54.462Z,16.12
2019-03-03T15:18:25.381Z,13.40
2019-03-03T15:20:56.303Z,12.35
2019-03-03T15:23:28.282Z,11.80
2019-03-03T15:26:00.396Z,11.75
2019-03-03T15:28:31.493Z,12.55
2019-03-03T15:31:02.762Z,18.87
2019-03-03T15:33:33.901Z,18.23
2019-03-03T15:36:04.884Z,15.25
2019-03-03T15:38:35.821Z,26.33
2019-03-03T15:41:06.860Z,18.15
2019-03-03T15:43:37.847Z,15.35
2019-03-03T15:46:08.836Z,17.32
2019-03-03T15:48:39.815Z,32.30
2019-03-03T15:51:10.946Z,17.98
2019-03-03T15:53:41.928Z,17.02
2019-03-03T15:56:12.825Z,17.42
2019-03-03T15:58:43.723Z,25.48
2019-03-03T16:01:15.154Z,18.62
2019-03-03T16:03:46.027Z,17.55
2019-03-03T16:06:16.948Z,20.82
2019-03-03T16:08:47.905Z,22.70
2019-03-03T16:11:18.812Z,23.65
2019-03-03T16:13:49.886Z,17.70
2019-03-03T16:16:20.875Z,17.70
2019-03-03T16:18:52.232Z,20.40
2019-03-03T16:21:23.427Z,15.40
2019-03-03T16:23:54.435Z,18.90
2019-03-03T16:26:25.352Z,17.60
2019-03-03T16:28:56.380Z,17.87
2019-03-03T16:31:27.251Z,20.57
2019-03-03T16:33:58.229Z,14.83
2019-03-03T16:36:29.210Z,14.25
2019-03-03T16:39:00.204Z,16.73
2019-03-03T16:41:31.261Z,16.23
2019-03-03T16:44:02.290Z,39.83
2019-03-03T16:46:33.366Z,30.65
2019-03-03T16:49:04.501Z,403.85
2019-03-03T16:51:35.528Z,35.90
2019-03-03T16:54:06.571Z,27.30
2019-03-03T16:56:37.592Z,24.67
2019-03-03T16:59:08.657Z,31.07
2019-03-03T17:01:39.767Z,20.35
2019-03-03T17:04:10.909Z,25.20
2019-03-03T17:06:42.024Z,23.73
2019-03-03T17:09:13.142Z,36.13
2019-03-03T17:11:44.223Z,43.15
2019-03-03T17:14:16.405Z,57.25
2019-03-03T17:16:48.105Z,45.60
2019-03-03T17:19:19.138Z,101.95
2019-03-03T17:21:50.154Z,133.80
2019-03-03T17:24:21.163Z,71.28
2019-03-03T17:26:52.326Z,98.42
2019-03-03T17:29:23.422Z,68.15
2019-03-03T17:31:54.592Z,120.20
2019-03-03T17:34:25.796Z,143.70
2019-03-03T17:36:57.021Z,151.90
2019-03-03T17:39:28.254Z,127.82
2019-03-03T17:41:59.233Z,264.60
2019-03-03T17:44:30.350Z,79.30
2019-03-03T17:47:01.421Z,88.30
2019-03-03T17:49:32.528Z,89.97
2019-03-03T17:52:03.582Z,127.22
2019-03-03T17:54:34.682Z,88.35
2019-03-03T17:57:05.712Z,85.03
2019-03-03T17:59:36.759Z,135.63
2019-03-03T18:02:07.992Z,173.70
2019-03-03T18:04:39.013Z,130.87
2019-03-03T18:07:10.260Z,123.22
2019-03-03T18:09:41.550Z,66.50
2019-03-03T18:12:12.988Z,80.60
2019-03-03T18:14:44.067Z,148.25
2019-03-03T18:17:15.144Z,60.75
2019-03-03T18:19:46.361Z,50.45
2019-03-03T18:22:17.607Z,220.25
2019-03-03T18:24:48.857Z,117.08
2019-03-03T18:27:20.076Z,182.20
2019-03-03T18:29:51.181Z,61.90
2019-03-03T18:32:22.379Z,478.08
2019-03-03T18:34:53.965Z,636.70
2019-03-03T18:37:25.695Z,218.00
2019-03-03T18:39:56.906Z,420.82
2019-03-03T18:42:28.093Z,73.97
2019-03-03T18:44:59.401Z,228.05
2019-03-03T18:47:30.491Z,204.60
2019-03-03T18:50:01.523Z,148.45
2019-03-03T18:52:34.057Z,122.82
2019-03-03T18:55:08.221Z,64.07
2019-03-03T18:57:39.856Z,92.88
2019-03-03T19:00:16.836Z,74.47
2019-03-03T19:02:49.221Z,107.45
2019-03-03T19:05:20.422Z,62.23
2019-03-03T19:07:51.610Z,52.45
2019-03-03T19:10:25.654Z,42.93
2019-03-03T19:12:56.759Z,59.35
2019-03-03T19:15:27.871Z,63.80
2019-03-03T19:17:59.015Z,42.48
2019-03-03T19:20:34.091Z,66.82
2019-03-03T19:23:05.433Z,36.38
2019-03-03T19:25:36.619Z,39.38
2019-03-03T19:28:07.895Z,48.73
2019-03-03T19:30:39.020Z,32.45
2019-03-03T19:33:22.153Z,74.97
2019-03-03T19:35:53.582Z,33.75
2019-03-03T19:38:24.791Z,40.33
2019-03-03T19:40:56.331Z,57.88
2019-03-03T19:43:28.138Z,38.90
2019-03-03T19:46:08.554Z,41.75
2019-03-03T19:48:39.724Z,39.98
2019-03-03T19:51:10.925Z,44.95
2019-03-03T19:53:42.208Z,39.08
2019-03-03T19:56:13.342Z,29.90
2019-03-03T19:58:44.525Z,28.42
2019-03-03T20:01:15.879Z,31.17
2019-03-03T20:03:47.128Z,25.35
2019-03-03T20:06:18.263Z,28.80
2019-03-03T20:08:49.478Z,26.60
2019-03-03T20:11:20.728Z,25.92
2019-03-03T20:13:51.867Z,33.83
2019-03-03T20:16:23.968Z,23.92
2019-03-03T20:18:55.099Z,27.32
2019-03-03T20:21:26.209Z,23.85
2019-03-03T20:23:57.400Z,24.35
2019-03-03T20:26:28.395Z,32.30
2019-03-03T20:28:59.585Z,21.82
2019-03-03T20:31:30.759Z,25.43
2019-03-03T20:34:01.891Z,26.27
2019-03-03T20:36:33.093Z,29.10
2019-03-03T20:39:05.809Z,27.52
2019-03-03T20:41:37.063Z,24.23
2019-03-03T20:44:08.291Z,26.17
2019-03-03T20:46:39.511Z,25.88
2019-03-03T20:49:10.973Z,27.10
2019-03-03T20:51:42.101Z,27.65
2019-03-03T20:54:13.205Z,25.05
2019-03-03T20:56:44.545Z,25.62
2019-03-03T20:59:16.119Z,26.60
2019-03-03T21:01:47.187Z,26.40
2019-03-03T21:04:18.314Z,28.17
2019-03-03T21:06:49.471Z,33.73
2019-03-03T21:09:20.553Z,29.40
2019-03-03T21:11:51.657Z,30.97
2019-03-03T21:14:22.707Z,30.10
2019-03-03T21:16:54.057Z,35.43
2019-03-03T21:19:25.360Z,31.80
2019-03-03T21:21:56.338Z,35.95
2019-03-03T21:24:27.314Z,28.32
2019-03-03T21:26:58.560Z,33.15
2019-03-03T21:29:29.548Z,31.70
2019-03-03T21:32:00.595Z,38.15
2019-03-03T21:34:31.647Z,29.12
2019-03-03T21:37:02.696Z,32.08
2019-03-03T21:39:33.830Z,33.42
2019-03-03T21:42:04.873Z,36.95
2019-03-03T21:44:35.914Z,34.38
2019-03-03T21:47:07.061Z,42.33
2019-03-03T21:49:38.304Z,33.83
2019-03-03T21:52:09.443Z,32.35
2019-03-03T21:54:40.659Z,31.70
2019-03-03T21:57:11.655Z,29.02
2019-03-03T21:59:42.677Z,29.82
2019-03-03T22:02:13.669Z,32.73
2019-03-03T22:04:44.859Z,39.25
2019-03-03T22:07:15.871Z,31.20
2019-03-03T22:09:46.882Z,34.55
2019-03-03T22:12:17.985Z,36.60
2019-03-03T22:14:49.027Z,31.50
2019-03-03T22:17:20.173Z,37.23
2019-03-03T22:19:51.237Z,32.25
2019-03-03T22:22:22.358Z,33.53
2019-03-03T22:24:53.401Z,35.03
2019-03-03T22:27:24.443Z,39.88
2019-03-03T22:29:55.487Z,33.75
2019-03-03T22:32:26.532Z,33.85
2019-03-03T22:34:57.670Z,29.40
2019-03-03T22:37:28.660Z,31.27
2019-03-03T22:39:59.719Z,29.82
2019-03-03T22:42:30.894Z,40.48
2019-03-03T22:45:01.937Z,30.75
2019-03-03T22:47:34.199Z,31.37
2019-03-03T22:50:08.185Z,32.55
2019-03-03T22:52:39.321Z,27.80
2019-03-03T22:55:12.255Z,26.17
2019-03-03T22:57:43.277Z,23.55
2019-03-03T23:00:29.447Z,33.88
2019-03-03T23:03:02.034Z,31.40
2019-03-03T23:05:53.179Z,34.10
2019-03-03T23:08:31.428Z,34.20
2019-03-03T23:11:25.512Z,30.00
2019-03-03T23:16:57.086Z,29.98
2019-03-03T23:19:34.026Z,28.80
2019-03-03T23:22:14.081Z,28.27
2019-03-03T23:25:03.725Z,33.05
2019-03-03T23:27:34.837Z,30.95
2019-03-03T23:30:08.072Z,32.58
2019-03-03T23:32:41.438Z,28.20
2019-03-03T23:35:12.572Z,27.90
2019-03-03T23:37:43.666Z,27.82
2019-03-03T23:40:14.766Z,31.68
2019-03-03T23:42:45.895Z,31.00
2019-03-03T23:45:16.903Z,35.88
2019-03-03T23:47:48.086Z,30.85
2019-03-03T23:50:19.179Z,37.30
2019-03-03T23:52:50.267Z,30.95
2019-03-03T23:55:21.255Z,28.70
2019-03-03T23:57:52.284Z,34.13
